Yangyang International Airport
RKNY : now visible

Airfield :











YOU CAN JOIN US ON...

 
LOGIN :

Register | Disclaimer

   EN    FR    IT 

 









Legend :    VFR   Marginal VFR   IFR   Intensive IFR   Very Intensive IFR
Visi :
Ceiling :
>= 8 km
>= 3000ft
5 to 8 km
1000 to 3000 ft
1500m to 5 km
500 to 1000 ft
800 to 1500m
200 to 500 ft
< 800m
< 200 ft
Symbols :   Thunderstorms  Fog  Heavy snow  Heavy precipitations  Wind > 20 kt






- Airport Elevation : 241 ft
- IATA code : YNY


RKNY - Yangyang International

CURRENT METAR :
  • 192100Z AUTO 25007KT 9999 NCD 03/M07 Q1030

EXPIRED METARs :
  • 192000Z AUTO 28008KT 9999 NCD 04/M07 Q1029
  • 191900Z AUTO 26007KT 9999 NCD 04/M07 Q1029

TAF TAF RKNY
Valid from the 19 at 18:00 until the 21 at 00:00 UTC


191700Z 1918/2024 26006KT CAVOK TN02/1922Z TX10/2005Z TN05/2022Z
BECMG 2002/2003 08005KT
BECMG 2008/2009 26006KT



MET'MAP, your aeronautical weather chart ! - Copyright ORBIFLY December 2007 - Disclaimer

ORBIFLY MET'MAP TEAM :

Programming & Development : Alexandra Zaïnal
Concept & original design : Baudouin d'Aumeries
Assistance for programming : Marc-Olivier Méhu
Technical & hardware support : Manuel Goepfert

Contact : metmap@orbifly.com




SOURCES & CREDITS :

   NOAA       Earth
Advisory